Time;durP1;ratioP1;P1;durP2;ratioP2;P2;SDS_P1;SDS_P2;PMS_P1;PMS_P2;Temp;Humidity;BMP_temperature;BMP_pressure;BME280_temperature;BME280_humidity;BME280_pressure;Samples;Min_cycle;Max_cycle;Signal;HPM_P1;HPM_P2
2024/02/09 00:01:18;;;;;;;21.55;9.98;;;-11.60;95.00;;;;;;5075034;28;20021;-80
2024/02/09 00:03:45;;;;;;;18.15;9.93;;;-11.60;95.00;;;;;;5073733;28;20029;-82
2024/02/09 00:06:11;;;;;;;19.08;10.88;;;-11.60;95.10;;;;;;5074867;28;20025;-80
2024/02/09 00:08:40;;;;;;;14.23;7.28;;;-11.60;94.80;;;;;;5087508;28;20079;-81
2024/02/09 00:11:07;;;;;;;12.30;5.72;;;-11.60;94.60;;;;;;5073753;28;20159;-83
2024/02/09 00:13:34;;;;;;;24.08;9.32;;;-11.60;94.70;;;;;;5080320;28;20063;-80
2024/02/09 00:16:01;;;;;;;12.38;7.22;;;-11.60;94.70;;;;;;5082018;28;20039;-82
2024/02/09 00:18:27;;;;;;;17.80;9.82;;;-11.60;94.70;;;;;;5075480;28;20021;-80
2024/02/09 00:20:53;;;;;;;14.85;9.75;;;-11.60;94.80;;;;;;5075244;28;20078;-80
2024/02/09 00:23:19;;;;;;;9.65;5.53;;;-11.60;94.80;;;;;;5087707;28;20020;-81
2024/02/09 00:25:49;;;;;;;18.48;11.40;;;-11.60;94.80;;;;;;5076410;28;20032;-81
2024/02/09 00:28:15;;;;;;;13.40;6.45;;;-11.60;94.80;;;;;;5076257;28;20021;-81
2024/02/09 00:30:41;;;;;;;18.52;9.88;;;-11.60;94.80;;;;;;5083250;28;20020;-80
2024/02/09 00:33:08;;;;;;;25.65;11.88;;;-11.60;94.80;;;;;;5082224;28;20029;-82
2024/02/09 00:35:40;;;;;;;18.38;10.43;;;-11.60;94.70;;;;;;5089807;28;20024;-83
2024/02/09 00:38:10;;;;;;;6.05;4.35;;;-11.60;94.70;;;;;;5082492;28;20025;-79
2024/02/09 00:40:36;;;;;;;14.45;7.90;;;-11.60;94.80;;;;;;5068048;28;20045;-78
2024/02/09 00:43:02;;;;;;;10.18;5.80;;;-11.60;94.80;;;;;;5067610;28;20475;-78
2024/02/09 00:45:33;;;;;;;22.20;11.27;;;-11.60;94.80;;;;;;5068703;28;20029;-78
2024/02/09 00:48:00;;;;;;;17.98;10.48;;;-11.60;94.90;;;;;;5070505;28;20029;-77
2024/02/09 00:50:27;;;;;;;16.10;8.30;;;-11.70;94.90;;;;;;5063897;28;20032;-81
2024/02/09 00:52:54;;;;;;;13.43;9.40;;;-11.60;94.90;;;;;;5071407;28;20086;-82
2024/02/09 00:55:20;;;;;;;17.65;9.85;;;-11.60;94.90;;;;;;5072550;28;20540;-81
2024/02/09 00:57:46;;;;;;;17.55;8.40;;;-11.60;94.90;;;;;;5071960;28;20025;-81
2024/02/09 01:00:14;;;;;;;18.58;11.40;;;-11.60;94.90;;;;;;5072779;28;20055;-80
2024/02/09 01:02:40;;;;;;;13.05;7.60;;;-11.60;94.90;;;;;;5063411;28;20021;-82
2024/02/09 01:05:13;;;;;;;14.07;7.28;;;-11.60;94.80;;;;;;5078278;28;20501;-83
2024/02/09 01:07:40;;;;;;;13.85;7.40;;;-11.70;94.80;;;;;;5070972;28;20370;-80
2024/02/09 01:10:07;;;;;;;25.92;10.20;;;-11.70;94.90;;;;;;5074980;28;20111;-80
2024/02/09 02:45:29;;;;;;;25.67;6.72;;;-11.70;94.70;;;;;;5072042;28;20021;-80
2024/02/09 03:04:27;;;;;;;10.45;5.38;;;-11.80;94.70;;;;;;5067793;28;20045;-80
2024/02/09 03:06:53;;;;;;;14.00;6.82;;;-11.90;94.70;;;;;;5075463;28;20456;-80
2024/02/09 03:09:19;;;;;;;14.40;8.05;;;-11.80;94.80;;;;;;5077707;28;20041;-81
2024/02/09 03:11:45;;;;;;;16.42;6.20;;;-11.90;94.80;;;;;;5088050;28;20024;-79
2024/02/09 03:14:11;;;;;;;24.02;9.55;;;-11.90;94.80;;;;;;5097630;28;20462;-79
2024/02/09 03:16:37;;;;;;;13.50;8.57;;;-11.90;94.80;;;;;;5080085;28;20397;-80
2024/02/09 03:19:03;;;;;;;6.68;4.07;;;-11.90;94.70;;;;;;5086507;28;20112;-80
2024/02/09 03:21:35;;;;;;;13.52;7.20;;;-11.90;94.70;;;;;;5080048;28;20082;-80
2024/02/09 03:24:01;;;;;;;16.98;8.65;;;-11.90;94.80;;;;;;5076368;28;20043;-80
2024/02/09 03:26:27;;;;;;;12.77;6.40;;;-11.80;94.90;;;;;;5079314;28;20020;-82
2024/02/09 03:28:53;;;;;;;13.88;6.53;;;-11.90;94.80;;;;;;5072835;28;20040;-80
2024/02/09 03:31:19;;;;;;;16.38;8.40;;;-11.90;94.80;;;;;;5082873;28;20119;-80
2024/02/09 03:33:45;;;;;;;14.60;7.93;;;-11.90;94.70;;;;;;5075869;28;20028;-81
2024/02/09 03:36:20;;;;;;;8.32;4.65;;;-11.90;94.70;;;;;;5074136;28;20024;-81
2024/02/09 03:38:47;;;;;;;14.45;7.82;;;-11.90;94.70;;;;;;5075313;28;20362;-80
2024/02/09 03:41:13;;;;;;;13.25;6.40;;;-11.90;94.80;;;;;;5066801;28;20025;-82
2024/02/09 03:43:39;;;;;;;22.55;8.82;;;-11.80;94.80;;;;;;5075040;28;20112;-81
2024/02/09 03:46:05;;;;;;;19.17;8.65;;;-11.80;94.80;;;;;;5074467;28;20020;-80
2024/02/09 03:48:34;;;;;;;7.53;4.57;;;-11.80;94.80;;;;;;5077440;28;20028;-81
2024/02/09 03:51:02;;;;;;;11.52;5.97;;;-11.80;94.80;;;;;;5079074;28;20024;-81
2024/02/09 03:53:31;;;;;;;13.02;6.97;;;-11.80;94.70;;;;;;5077818;28;20482;-83
2024/02/09 03:55:57;;;;;;;13.95;8.15;;;-11.80;94.70;;;;;;5083524;28;20027;-82
2024/02/09 03:58:22;;;;;;;9.57;4.13;;;-11.80;94.70;;;;;;5074088;28;20420;-81
2024/02/09 04:00:48;;;;;;;15.30;6.90;;;-11.80;94.70;;;;;;5075781;28;20113;-81
2024/02/09 04:03:15;;;;;;;15.68;7.20;;;-11.90;94.70;;;;;;5074912;28;20019;-81
2024/02/09 04:05:41;;;;;;;14.32;5.85;;;-11.90;94.70;;;;;;5072961;28;20020;-80
2024/02/09 04:08:07;;;;;;;11.45;5.32;;;-11.90;94.70;;;;;;5074063;28;20090;-80
2024/02/09 04:10:33;;;;;;;11.57;5.80;;;-11.90;94.80;;;;;;5073273;28;20095;-80
2024/02/09 04:12:59;;;;;;;15.07;8.68;;;-11.90;94.80;;;;;;5076129;28;20147;-80
2024/02/09 04:15:24;;;;;;;8.45;4.15;;;-11.80;94.80;;;;;;5077532;28;20041;-80
2024/02/09 04:17:51;;;;;;;13.32;7.00;;;-11.80;94.70;;;;;;5072951;28;20028;-82
2024/02/09 04:20:18;;;;;;;7.88;4.15;;;-11.80;94.80;;;;;;5072159;28;20071;-81
2024/02/09 04:22:44;;;;;;;12.68;7.07;;;-11.80;94.90;;;;;;5073997;28;20073;-81
2024/02/09 04:25:10;;;;;;;8.35;5.15;;;-11.80;94.80;;;;;;5072489;28;20029;-81
2024/02/09 04:27:36;;;;;;;11.23;6.68;;;-11.80;94.70;;;;;;5072525;28;20028;-81
2024/02/09 04:30:02;;;;;;;11.95;7.15;;;-11.80;94.70;;;;;;5071215;28;20048;-81
2024/02/09 04:32:29;;;;;;;20.10;7.27;;;-11.80;94.50;;;;;;5079046;28;20493;-79
2024/02/09 04:34:55;;;;;;;14.73;8.75;;;-11.80;94.40;;;;;;5084724;28;20041;-81
2024/02/09 04:37:21;;;;;;;15.35;6.03;;;-11.80;94.40;;;;;;5074257;28;20103;-81
2024/02/09 04:39:48;;;;;;;12.20;5.72;;;-11.80;94.40;;;;;;5068708;28;20048;-79
2024/02/09 04:42:14;;;;;;;;;;;-11.80;94.50;;;;;;5068524;28;20024;-81
2024/02/09 04:44:40;;;;;;;7.57;4.80;;;-11.80;94.50;;;;;;5072693;28;19912;-80
2024/02/09 04:47:06;;;;;;;15.10;6.78;;;-11.80;94.30;;;;;;5073544;28;20028;-81
2024/02/09 04:49:31;;;;;;;15.95;6.95;;;-11.80;94.30;;;;;;5072331;28;20028;-80
2024/02/09 04:51:57;;;;;;;6.68;4.65;;;-11.80;94.40;;;;;;5073115;28;20092;-81
2024/02/09 04:54:24;;;;;;;10.15;4.80;;;-11.80;94.40;;;;;;5073730;28;20081;-82
2024/02/09 04:56:50;;;;;;;8.57;5.63;;;-11.80;94.30;;;;;;5082379;28;20059;-81
2024/02/09 04:59:16;;;;;;;11.40;5.85;;;-11.80;94.20;;;;;;5078991;28;20048;-81
2024/02/09 05:01:42;;;;;;;10.98;6.72;;;-11.80;94.30;;;;;;5083848;28;20028;-82
2024/02/09 05:04:14;;;;;;;9.25;5.03;;;-11.80;94.20;;;;;;5080450;28;20020;-83
2024/02/09 05:06:41;;;;;;;14.60;5.60;;;-11.80;94.30;;;;;;5079247;28;20020;-82
2024/02/09 05:09:09;;;;;;;7.68;4.45;;;-11.80;94.40;;;;;;5073248;28;20470;-82
2024/02/09 05:11:36;;;;;;;15.35;7.00;;;-11.80;94.40;;;;;;5067843;28;20024;-81
2024/02/09 05:14:06;;;;;;;8.25;6.13;;;-11.80;94.30;;;;;;5072485;28;20350;-81
2024/02/09 05:16:33;;;;;;;12.68;6.60;;;-11.80;94.30;;;;;;5070789;28;20072;-82
2024/02/09 05:19:01;;;;;;;13.27;5.93;;;-11.80;94.40;;;;;;5073484;28;20021;-82
2024/02/09 05:21:34;;;;;;;8.98;4.53;;;-11.80;94.40;;;;;;5071646;28;20500;-84
2024/02/09 05:24:01;;;;;;;11.13;5.47;;;-11.70;94.30;;;;;;5071728;28;20392;-80
2024/02/09 05:26:27;;;;;;;8.18;5.78;;;-11.70;94.30;;;;;;5072360;28;20034;-80
2024/02/09 05:28:53;;;;;;;12.95;6.03;;;-11.70;94.30;;;;;;5073835;28;20486;-83
2024/02/09 05:31:25;;;;;;;17.15;7.13;;;-11.70;94.20;;;;;;5072833;28;20028;-81
2024/02/09 05:33:52;;;;;;;6.55;3.78;;;-11.70;94.30;;;;;;5067490;28;20016;-80
2024/02/09 05:36:21;;;;;;;10.73;5.75;;;-11.70;94.30;;;;;;5074305;28;20021;-81
2024/02/09 05:38:49;;;;;;;10.18;6.05;;;-11.70;94.30;;;;;;5071069;28;20339;-82
2024/02/09 05:41:16;;;;;;;11.77;6.55;;;-11.70;94.30;;;;;;5070662;28;20486;-80
2024/02/09 05:43:47;;;;;;;15.60;6.80;;;-11.70;94.30;;;;;;5072116;28;20020;-80
2024/02/09 05:46:13;;;;;;;12.32;5.00;;;-11.60;94.20;;;;;;5072301;28;20806;-80
2024/02/09 05:48:41;;;;;;;18.02;7.53;;;-11.60;94.20;;;;;;5072196;28;20082;-80
2024/02/09 05:51:18;;;;;;;10.55;5.72;;;-11.60;94.30;;;;;;5072174;28;20029;-81
2024/02/09 05:53:48;;;;;;;10.20;6.90;;;-11.50;94.30;;;;;;5071925;28;20104;-81
2024/02/09 05:56:21;;;;;;;14.57;3.35;;;-11.50;94.30;;;;;;5068275;28;20024;-82
2024/02/09 05:59:04;;;;;;;9.88;5.75;;;-11.40;94.10;;;;;;5075258;28;20025;-84
2024/02/09 06:01:31;;;;;;;11.70;5.72;;;-11.40;94.00;;;;;;5072462;28;20389;-85
2024/02/09 06:03:56;;;;;;;8.30;5.63;;;-11.40;93.80;;;;;;5073112;28;20021;-83
2024/02/09 06:06:25;;;;;;;10.38;4.97;;;-11.40;94.10;;;;;;5071279;28;20534;-84
2024/02/09 06:08:51;;;;;;;9.80;5.82;;;-11.40;94.30;;;;;;5071375;28;20241;-82
2024/02/09 06:11:17;;;;;;;11.75;4.93;;;-11.40;94.40;;;;;;5072784;28;20377;-83
2024/02/09 06:13:47;;;;;;;10.77;5.10;;;-11.40;94.50;;;;;;5075798;28;20039;-84
2024/02/09 06:16:14;;;;;;;8.82;5.55;;;-11.30;94.50;;;;;;5084197;28;20024;-85
2024/02/09 06:18:42;;;;;;;14.15;7.28;;;-11.30;94.60;;;;;;5087512;28;20017;-83
2024/02/09 06:21:08;;;;;;;4.75;3.17;;;-11.20;94.30;;;;;;5073896;28;20482;-83
2024/02/09 06:23:38;;;;;;;5.90;3.83;;;-11.20;94.50;;;;;;5081765;28;20140;-83
2024/02/09 06:26:04;;;;;;;8.95;5.22;;;-11.10;94.20;;;;;;5077078;28;20273;-81
2024/02/09 06:28:31;;;;;;;12.02;7.80;;;-11.10;94.10;;;;;;5079314;28;20048;-83
2024/02/09 06:30:56;;;;;;;11.27;6.13;;;-11.10;94.10;;;;;;5064166;28;20021;-84
2024/02/09 06:33:22;;;;;;;8.25;5.55;;;-11.00;94.00;;;;;;5071323;28;20101;-81
2024/02/09 06:35:48;;;;;;;10.35;4.97;;;-11.00;93.90;;;;;;5071499;28;20439;-81
2024/02/09 06:38:17;;;;;;;16.00;5.80;;;-10.90;93.90;;;;;;5071467;28;20083;-82
2024/02/09 06:40:43;;;;;;;12.05;5.53;;;-10.90;93.90;;;;;;5073212;28;20025;-84
2024/02/09 06:43:09;;;;;;;14.57;6.57;;;-10.90;93.90;;;;;;5073441;28;20039;-84
2024/02/09 06:45:37;;;;;;;13.98;5.95;;;-10.80;93.70;;;;;;5074069;28;20048;-83
2024/02/09 06:48:07;;;;;;;6.88;4.38;;;-10.80;93.70;;;;;;5075655;28;20413;-83
2024/02/09 06:50:35;;;;;;;11.38;5.65;;;-10.80;93.70;;;;;;5077362;28;20032;-83
2024/02/09 06:53:02;;;;;;;10.40;5.45;;;-10.80;93.60;;;;;;5068840;28;20404;-82
2024/02/09 06:55:27;;;;;;;6.38;4.22;;;-10.70;93.60;;;;;;5067060;28;20033;-81
2024/02/09 06:57:54;;;;;;;17.92;6.18;;;-10.70;93.70;;;;;;5074634;28;20508;-82
2024/02/09 07:00:19;;;;;;;7.13;4.53;;;-10.70;93.90;;;;;;5088237;28;20106;-83
2024/02/09 07:02:47;;;;;;;8.68;5.07;;;-10.70;93.90;;;;;;5070988;28;20098;-85
2024/02/09 07:05:15;;;;;;;4.00;2.90;;;-10.60;93.70;;;;;;5072275;28;20086;-82
2024/02/09 07:07:43;;;;;;;10.55;5.35;;;-10.60;93.80;;;;;;5055473;28;20052;-84
2024/02/09 07:10:17;;;;;;;10.82;6.20;;;-10.60;93.90;;;;;;5060568;28;20164;-84
2024/02/09 07:12:46;;;;;;;13.30;6.05;;;-10.60;93.90;;;;;;5076694;28;20439;-84
2024/02/09 07:15:16;;;;;;;10.20;5.25;;;-10.50;93.90;;;;;;5069715;28;20053;-83
2024/02/09 07:17:43;;;;;;;9.57;5.03;;;-10.40;93.70;;;;;;5078440;28;20032;-82
2024/02/09 07:20:11;;;;;;;8.75;6.03;;;-10.40;93.30;;;;;;5075343;28;20063;-84
2024/02/09 07:22:37;;;;;;;17.85;7.13;;;-10.30;93.30;;;;;;5074045;28;20028;-82
2024/02/09 07:25:03;;;;;;;9.27;5.90;;;-10.30;93.20;;;;;;5071586;28;20025;-83
2024/02/09 07:27:29;;;;;;;13.40;6.47;;;-10.30;93.20;;;;;;5074810;28;20106;-79
2024/02/09 07:29:56;;;;;;;8.98;5.07;;;-10.20;93.10;;;;;;5071669;28;20033;-80
2024/02/09 07:32:22;;;;;;;16.85;6.97;;;-10.20;92.90;;;;;;5074631;28;20020;-79
2024/02/09 07:34:48;;;;;;;6.77;4.37;;;-10.20;92.80;;;;;;5071153;28;20502;-78
2024/02/09 07:37:15;;;;;;;10.25;6.57;;;-10.20;92.70;;;;;;5067046;28;20023;-78
2024/02/09 07:39:41;;;;;;;6.88;4.80;;;-10.20;92.60;;;;;;5074549;28;20036;-78
2024/02/09 07:42:11;;;;;;;12.00;4.73;;;-10.20;92.60;;;;;;5073144;28;20028;-80
2024/02/09 07:44:37;;;;;;;15.38;10.15;;;-10.30;92.40;;;;;;5074463;28;20052;-79
2024/02/09 07:47:04;;;;;;;8.27;5.60;;;-10.30;92.50;;;;;;5071282;28;20064;-79
2024/02/09 07:49:31;;;;;;;9.32;5.72;;;-10.30;92.50;;;;;;5070066;28;20016;-79
2024/02/09 07:51:59;;;;;;;10.43;4.78;;;-10.30;92.60;;;;;;5074220;28;20055;-80
2024/02/09 07:54:26;;;;;;;9.90;6.28;;;-10.30;92.60;;;;;;5074406;28;20023;-78
2024/02/09 07:56:52;;;;;;;9.02;4.60;;;-10.30;92.90;;;;;;5074434;28;20081;-79
2024/02/09 07:59:19;;;;;;;11.35;6.22;;;-10.30;92.70;;;;;;5075332;28;20037;-80
2024/02/09 08:01:47;;;;;;;12.05;6.40;;;-10.30;93.00;;;;;;5072977;28;20028;-79
2024/02/09 08:04:13;;;;;;;9.20;5.38;;;-10.30;92.80;;;;;;5074729;28;20020;-80
2024/02/09 08:06:39;;;;;;;7.70;5.93;;;-10.20;92.70;;;;;;5073429;28;20390;-78
2024/02/09 08:09:05;;;;;;;13.38;7.00;;;-10.20;92.50;;;;;;5073784;28;20048;-79
2024/02/09 08:11:31;;;;;;;10.55;5.53;;;-10.10;92.30;;;;;;5074290;28;20031;-79
2024/02/09 08:14:01;;;;;;;11.38;5.53;;;-10.10;92.30;;;;;;5073707;28;20020;-78
2024/02/09 08:16:27;;;;;;;6.07;4.03;;;-10.00;92.30;;;;;;5070524;28;20025;-79
2024/02/09 08:18:53;;;;;;;7.90;5.40;;;-10.00;92.50;;;;;;5074065;28;20039;-81
2024/02/09 08:21:20;;;;;;;10.40;5.95;;;-9.90;92.60;;;;;;5074073;28;20108;-79
2024/02/09 08:23:45;;;;;;;;;;;-9.80;92.80;;;;;;5079196;28;20111;-78
2024/02/09 08:26:11;;;;;;;6.93;4.13;;;-9.80;92.60;;;;;;5073605;28;20511;-77
2024/02/09 08:28:47;;;;;;;10.52;6.43;;;-9.70;92.80;;;;;;5073697;28;20021;-80
2024/02/09 08:31:16;;;;;;;6.63;4.63;;;-9.60;92.70;;;;;;5073589;28;20024;-79
2024/02/09 08:33:47;;;;;;;6.68;4.82;;;-9.40;93.00;;;;;;5064511;28;20036;-79
2024/02/09 08:36:16;;;;;;;9.18;4.25;;;-9.10;93.50;;;;;;5073753;28;20055;-80
2024/02/09 08:38:46;;;;;;;6.38;4.70;;;-8.80;93.20;;;;;;5073388;28;20027;-78
2024/02/09 08:41:12;;;;;;;13.02;4.43;;;-8.50;92.60;;;;;;5073957;28;20040;-79
2024/02/09 08:43:38;;;;;;;8.00;4.28;;;-8.20;92.60;;;;;;5073825;28;20078;-78
2024/02/09 08:46:04;;;;;;;11.00;6.47;;;-8.00;91.80;;;;;;5072031;28;20037;-79
2024/02/09 08:48:30;;;;;;;14.00;6.95;;;-7.80;92.00;;;;;;5071123;28;20032;-78
2024/02/09 08:50:56;;;;;;;8.93;5.18;;;-7.50;92.00;;;;;;5066253;28;20398;-79
2024/02/09 08:53:22;;;;;;;14.88;5.47;;;-7.30;92.70;;;;;;5073390;28;20025;-78
2024/02/09 08:55:48;;;;;;;7.95;3.95;;;-7.00;92.90;;;;;;5073710;28;20020;-81
2024/02/09 08:58:13;;;;;;;11.85;7.32;;;-6.70;92.20;;;;;;5073470;28;20028;-79
2024/02/09 09:00:39;;;;;;;10.48;5.53;;;-6.50;91.80;;;;;;5073923;28;20477;-78
2024/02/09 09:03:05;;;;;;;7.15;5.40;;;-6.20;91.10;;;;;;5073341;28;20539;-81
2024/02/09 09:05:31;;;;;;;11.43;5.57;;;-5.90;90.90;;;;;;5068242;28;20024;-80
2024/02/09 09:07:57;;;;;;;12.80;5.78;;;-5.60;90.90;;;;;;5066057;28;20032;-78
2024/02/09 09:10:23;;;;;;;7.53;4.60;;;-5.20;88.90;;;;;;5066179;28;20078;-79
2024/02/09 09:12:49;;;;;;;6.97;4.30;;;-4.80;89.10;;;;;;5073320;28;20016;-81
2024/02/09 09:15:15;;;;;;;4.30;3.28;;;-4.30;88.70;;;;;;5073695;28;20025;-80
2024/02/09 09:17:41;;;;;;;8.52;5.75;;;-3.90;87.60;;;;;;5073338;28;20016;-81
2024/02/09 09:20:10;;;;;;;10.75;6.35;;;-3.50;84.70;;;;;;5072956;28;20503;-80
2024/02/09 09:22:38;;;;;;;7.63;4.70;;;-3.20;81.90;;;;;;5074401;28;20085;-80
2024/02/09 09:25:07;;;;;;;11.63;5.38;;;-2.80;79.50;;;;;;5073537;28;20024;-78
2024/02/09 09:27:35;;;;;;;6.90;5.03;;;-2.50;78.80;;;;;;5075095;28;20867;-79
2024/02/09 09:30:05;;;;;;;8.70;5.63;;;-2.30;77.90;;;;;;5074992;28;20608;-78
2024/02/09 09:32:34;;;;;;;8.77;5.30;;;-2.20;73.70;;;;;;5066649;28;20025;-78
2024/02/09 09:35:00;;;;;;;8.85;6.53;;;-2.00;75.50;;;;;;5072557;28;20020;-79
2024/02/09 09:37:28;;;;;;;8.23;5.95;;;-1.80;73.50;;;;;;5071811;28;20048;-80
2024/02/09 09:39:54;;;;;;;8.15;4.20;;;;;;;;;;5072478;28;20029;-79
2024/02/09 09:42:23;;;;;;;9.30;4.68;;;;;;;;;;5071949;28;20092;-79
2024/02/09 09:44:52;;;;;;;9.73;3.90;;;;;;;;;;5072097;28;20025;-79
2024/02/09 09:47:18;;;;;;;9.85;5.22;;;;;;;;;;5072360;28;20583;-79
2024/02/09 09:49:45;;;;;;;9.83;4.67;;;;;;;;;;5071163;28;20021;-80
2024/02/09 09:52:12;;;;;;;11.70;4.95;;;;;;;;;;5070618;28;20031;-77
2024/02/09 09:54:39;;;;;;;8.27;5.22;;;;;;;;;;5072150;28;20100;-80
2024/02/09 09:57:05;;;;;;;8.38;5.45;;;;;;;;;;5071838;28;20044;-77
2024/02/09 09:59:32;;;;;;;10.57;4.90;;;;;;;;;;5071512;28;20071;-78
2024/02/09 10:01:58;;;;;;;9.65;5.93;;;;;;;;;;5072030;28;20020;-79
2024/02/09 10:04:24;;;;;;;9.50;5.25;;;;;;;;;;5072053;28;20043;-80
2024/02/09 10:06:50;;;;;;;10.65;4.82;;;;;;;;;;5072001;28;20024;-81
2024/02/09 10:09:17;;;;;;;9.88;5.20;;;;;;;;;;5070405;28;20044;-80
2024/02/09 10:11:45;;;;;;;9.95;6.03;;;;;;;;;;5072001;28;20395;-82
2024/02/09 10:14:14;;;;;;;10.55;6.10;;;;;;;;;;5071960;28;20028;-81
2024/02/09 10:16:41;;;;;;;7.95;5.05;;;;;;;;;;5070219;28;20056;-81
2024/02/09 10:19:08;;;;;;;8.90;5.95;;;;;;;;;;5066008;28;20115;-82
2024/02/09 10:21:34;;;;;;;12.20;6.15;;;;;;;;;;5069090;28;20134;-83
2024/02/09 10:24:01;;;;;;;8.10;5.70;;;;;;;;;;5072103;28;20044;-81
2024/02/09 10:26:27;;;;;;;7.40;5.35;;;;;;;;;;5070573;28;20021;-81
2024/02/09 10:28:54;;;;;;;6.95;4.68;;;;;;;;;;5072050;28;20025;-81
2024/02/09 10:31:24;;;;;;;7.68;4.88;;;;;;;;;;5065431;28;20025;-82
2024/02/09 10:33:50;;;;;;;7.70;4.38;;;;;;;;;;5075761;28;20115;-81
2024/02/09 10:36:19;;;;;;;7.78;4.85;;;;;;;;;;5069335;28;20017;-82
2024/02/09 10:38:48;;;;;;;10.63;5.88;;;;;;;;;;5072682;28;20372;-81
2024/02/09 10:41:17;;;;;;;7.55;4.70;;;;;;;;;;5073887;28;20029;-84
2024/02/09 10:43:47;;;;;;;9.70;4.78;;;;;;;;;;5077983;28;20024;-84
2024/02/09 10:46:19;;;;;;;9.35;5.75;;;;;;;;;;5072436;28;20024;-82
2024/02/09 10:48:47;;;;;;;9.43;6.30;;;;;;;;;;5070444;28;20051;-82
2024/02/09 10:51:14;;;;;;;10.60;6.22;;;;;;;;;;5062663;28;20033;-83
2024/02/09 10:53:49;;;;;;;8.75;5.35;;;;;;;;;;5068453;28;20025;-85
2024/02/09 10:56:16;;;;;;;7.25;3.55;;;;;;;;;;5073099;28;20035;-85
2024/02/09 10:58:43;;;;;;;10.10;4.95;;;;;;;;;;5076879;28;20032;-85
2024/02/09 11:01:11;;;;;;;6.97;4.13;;;;;;;;;;5073367;28;20437;-79
2024/02/09 11:03:38;;;;;;;6.00;3.55;;;;;;;;;;5076133;28;20028;-79
2024/02/09 11:06:08;;;;;;;9.55;5.57;;;-1.60;73.80;;;;;;5075015;28;20420;-82
2024/02/09 11:08:34;;;;;;;10.02;5.45;;;-3.40;71.50;;;;;;5073861;28;20087;-82
2024/02/09 11:11:06;;;;;;;10.47;5.47;;;-3.70;70.80;;;;;;5074004;28;20116;-80
2024/02/09 11:13:33;;;;;;;6.95;4.60;;;-3.90;71.10;;;;;;5075511;28;20408;-82
2024/02/09 11:16:07;;;;;;;7.40;4.75;;;;;;;;;;5075461;28;20052;-80
2024/02/09 11:18:37;;;;;;;7.65;4.75;;;;;;;;;;5065136;28;20024;-80
2024/02/09 11:21:06;;;;;;;9.23;4.65;;;;;;;;;;5068622;28;20402;-80
2024/02/09 11:23:33;;;;;;;11.10;5.05;;;;;;;;;;5074710;28;20027;-81
2024/02/09 11:26:04;;;;;;;5.03;3.67;;;;;;;;;;5069198;28;20036;-83
2024/02/09 11:28:31;;;;;;;7.07;4.40;;;;;;;;;;5073339;28;20104;-80
2024/02/09 11:30:58;;;;;;;9.40;5.13;;;;;;;;;;5075378;28;20420;-82
2024/02/09 11:33:24;;;;;;;;;;;;;;;;;;5074428;28;20031;-80
2024/02/09 11:35:51;;;;;;;6.00;3.97;;;;;;;;;;5067534;28;19909;-83
2024/02/09 11:38:21;;;;;;;5.45;3.42;;;;;;;;;;5063807;28;20490;-85
2024/02/09 11:40:51;;;;;;;7.25;4.35;;;;;;;;;;5073754;28;20044;-84
2024/02/09 11:43:17;;;;;;;4.97;3.42;;;;;;;;;;5067433;28;20032;-85
2024/02/09 11:45:44;;;;;;;6.25;3.97;;;;;;;;;;5071860;28;20107;-85
2024/02/09 11:48:13;;;;;;;13.50;4.03;;;;;;;;;;5071250;28;20453;-83
2024/02/09 11:50:39;;;;;;;7.50;4.47;;;;;;;;;;5071535;28;20032;-83
2024/02/09 11:53:06;;;;;;;5.68;4.15;;;;;;;;;;5074489;28;20100;-82
2024/02/09 11:55:32;;;;;;;7.53;3.70;;;;;;;;;;5070629;28;20085;-82
2024/02/09 11:57:59;;;;;;;7.22;4.65;;;;;;;;;;5071977;28;20020;-81
2024/02/09 12:00:26;;;;;;;7.43;3.20;;;;;;;;;;5072351;28;20077;-83
2024/02/09 12:02:52;;;;;;;6.20;3.17;;;;;;;;;;5062060;28;20269;-82
2024/02/09 12:05:19;;;;;;;6.53;3.38;;;;;;;;;;5063000;28;20869;-81
2024/02/09 12:07:45;;;;;;;5.75;3.80;;;;;;;;;;5073867;28;20029;-79
2024/02/09 12:10:11;;;;;;;6.18;2.65;;;;;;;;;;5075720;28;20056;-81
2024/02/09 12:12:38;;;;;;;5.35;3.38;;;;;;;;;;5072808;28;20017;-83
2024/02/09 12:15:06;;;;;;;3.97;3.00;;;;;;;;;;5074773;28;20097;-81
2024/02/09 12:17:32;;;;;;;5.85;2.55;;;;;;;;;;5068132;28;20021;-82
2024/02/09 12:20:09;;;;;;;4.38;2.60;;;;;;;;;;5060476;28;20572;-81
2024/02/09 12:22:38;;;;;;;6.55;3.15;;;;;;;;;;5064933;28;20366;-80
2024/02/09 12:25:04;;;;;;;9.57;3.10;;;;;;;;;;5084996;28;20441;-81
2024/02/09 12:27:31;;;;;;;11.00;3.90;;;;;;;;;;5083454;28;20028;-81
2024/02/09 12:29:59;;;;;;;6.47;4.05;;;;;;;;;;5079452;28;20030;-83
2024/02/09 12:32:25;;;;;;;4.50;2.80;;;;;;;;;;5074766;28;20031;-82
2024/02/09 12:34:52;;;;;;;6.97;3.90;;;;;;;;;;5063519;28;20214;-84
2024/02/09 12:37:18;;;;;;;3.72;3.35;;;;;;;;;;5074075;28;20107;-81
2024/02/09 12:39:48;;;;;;;7.03;4.00;;;;;;;;;;5076048;28;20048;-80
2024/02/09 12:42:14;;;;;;;6.20;2.60;;;;;;;;;;5082715;28;20024;-81
2024/02/09 12:44:44;;;;;;;4.57;2.63;;;;;;;;;;5080510;28;20082;-81
2024/02/09 12:47:10;;;;;;;5.45;3.15;;;;;;;;;;5074757;28;20100;-82
2024/02/09 12:49:36;;;;;;;5.18;3.20;;;;;;;;;;5074192;28;20042;-81
2024/02/09 12:52:06;;;;;;;5.53;3.27;;;;;;;;;;5071010;28;20020;-82
2024/02/09 12:54:33;;;;;;;8.43;3.40;;;;;;;;;;5073702;28;20031;-82
2024/02/09 12:56:59;;;;;;;8.35;3.17;;;;;;;;;;5063732;28;20469;-81
2024/02/09 12:59:34;;;;;;;5.07;2.78;;;;;;;;;;5070630;28;20494;-84
2024/02/09 13:02:01;;;;;;;4.15;2.90;;;;;;;;;;5074137;28;20028;-81
2024/02/09 13:04:27;;;;;;;6.93;3.70;;;;;;;;;;5075083;28;20065;-83
2024/02/09 13:06:54;;;;;;;6.80;3.70;;;;;;;;;;5069919;28;20032;-84
2024/02/09 13:09:20;;;;;;;5.88;3.00;;;;;;;;;;5072378;28;20497;-84
2024/02/09 13:11:49;;;;;;;5.97;3.58;;;;;;;;;;5073968;28;20028;-81
2024/02/09 13:14:19;;;;;;;2.58;2.17;;;;;;;;;;5071184;28;20029;-82
2024/02/09 13:16:48;;;;;;;5.88;3.10;;;;;;;;;;5072465;28;20094;-82
2024/02/09 13:19:15;;;;;;;8.63;4.15;;;;;;;;;;5071276;28;20016;-83
2024/02/09 13:21:41;;;;;;;6.28;3.75;;;;;;;;;;5060963;28;20064;-81
2024/02/09 13:24:08;;;;;;;4.38;2.35;;;;;;;;;;5070508;28;20029;-84
2024/02/09 13:26:35;;;;;;;5.68;2.70;;;;;;;;;;5071162;28;20374;-83
2024/02/09 13:29:04;;;;;;;;;;;;;;;;;;5068216;28;20073;-84
2024/02/09 13:31:34;;;;;;;3.85;2.53;;;;;;;;;;5068876;28;19908;-85
2024/02/09 13:34:00;;;;;;;4.80;3.05;;;;;;;;;;5069815;28;20017;-81
2024/02/09 13:36:26;;;;;;;5.38;3.03;;;;;;;;;;5066411;28;20100;-82
2024/02/09 13:38:53;;;;;;;5.63;3.67;;;;;;;;;;5072476;28;20017;-82
2024/02/09 13:41:19;;;;;;;9.93;3.40;;;;;;;;;;5073520;28;20032;-82
2024/02/09 13:43:45;;;;;;;5.83;3.50;;;;;;;;;;5071959;28;20016;-83
2024/02/09 13:46:12;;;;;;;3.17;2.42;;;;;;;;;;5073676;28;20254;-82
2024/02/09 13:48:38;;;;;;;7.20;3.47;;;;;;;;;;5073257;28;20017;-80
2024/02/09 13:51:07;;;;;;;3.95;2.63;;;;;;;;;;5074273;28;20028;-83
2024/02/09 13:53:33;;;;;;;5.38;3.13;;;;;;;;;;5076363;28;20096;-83
2024/02/09 13:55:59;;;;;;;6.43;3.35;;;;;;;;;;5082796;28;20027;-83
2024/02/09 13:58:28;;;;;;;3.72;2.25;;;;;;;;;;5081550;28;20023;-82
2024/02/09 14:00:54;;;;;;;6.75;2.90;;;;;;;;;;5076798;28;20039;-82
2024/02/09 14:03:20;;;;;;;5.80;2.78;;;;;;;;;;5073091;28;20477;-82
2024/02/09 14:05:46;;;;;;;3.45;2.30;;;;;;;;;;5073121;28;20025;-80
2024/02/09 14:08:17;;;;;;;5.72;2.78;;;;;;;;;;5067420;28;20107;-81
2024/02/09 14:10:43;;;;;;;2.97;2.10;;;;;;;;;;5085785;28;20092;-83
2024/02/09 14:13:09;;;;;;;6.60;3.47;;;;;;;;;;5073612;28;20026;-82
2024/02/09 14:15:35;;;;;;;7.07;4.13;;;;;;;;;;5072509;28;20025;-84
2024/02/09 14:18:04;;;;;;;7.07;3.80;;;;;;;;;;5075171;28;20012;-84
2024/02/09 14:20:30;;;;;;;3.47;2.53;;;;;;;;;;5071576;28;20036;-84
2024/02/09 14:22:59;;;;;;;5.67;3.47;;;;;;;;;;5072625;28;20070;-83
2024/02/09 14:25:25;;;;;;;6.88;3.15;;;;;;;;;;5070792;28;20276;-83
2024/02/09 14:27:52;;;;;;;6.75;3.30;;;;;;;;;;5072432;28;20100;-84
2024/02/09 14:30:20;;;;;;;5.22;2.78;;;;;;;;;;5073066;28;20032;-84
2024/02/09 14:32:48;;;;;;;5.80;3.28;;;;;;;;;;5076126;28;20020;-85
2024/02/09 14:35:14;;;;;;;5.97;3.03;;;;;;;;;;5073221;28;20032;-83
2024/02/09 14:37:40;;;;;;;8.53;3.63;;;;;;;;;;5077176;28;20025;-85
2024/02/09 14:40:07;;;;;;;5.70;2.95;;;;;;;;;;5073959;28;20041;-86
2024/02/09 14:42:34;;;;;;;5.47;3.95;;;;;;;;;;5073007;28;20031;-85
2024/02/09 14:45:02;;;;;;;4.68;3.20;;;;;;;;;;5073941;28;20493;-85
2024/02/09 14:47:29;;;;;;;11.52;3.25;;;;;;;;;;5059226;28;20403;-85
2024/02/09 14:49:55;;;;;;;3.65;2.75;;;;;;;;;;5072958;28;20024;-84
2024/02/09 14:52:21;;;;;;;6.82;2.35;;;;;;;;;;5071190;28;20051;-83
2024/02/09 14:54:49;;;;;;;8.30;3.87;;;;;;;;;;5074159;28;20025;-83
2024/02/09 14:57:15;;;;;;;3.95;2.72;;;;;;;;;;5071451;28;20043;-83
2024/02/09 14:59:42;;;;;;;5.10;2.72;;;-4.20;71.90;;;;;;5072635;28;20113;-84
2024/02/09 15:02:10;;;;;;;5.53;3.05;;;-7.10;87.00;;;;;;5073380;28;20020;-86
2024/02/09 15:04:39;;;;;;;5.45;3.17;;;-7.20;86.80;;;;;;5075278;28;20023;-84
2024/02/09 15:07:07;;;;;;;5.68;3.20;;;-7.20;85.60;;;;;;5076438;28;20021;-85